Time;durP1;ratioP1;P1;durP2;ratioP2;P2;SDS_P1;SDS_P2;PMS_P1;PMS_P2;Temp;Humidity;BMP_temperature;BMP_pressure;BME280_temperature;BME280_humidity;BME280_pressure;Samples;Min_cycle;Max_cycle;Signal;HPM_P1;HPM_P2
2023/11/25 00:00:42;;;;;;;3.72;2.20;;;5.10;99.90;;;;;;5000825;28;20680;-78
2023/11/25 00:03:09;;;;;;;4.97;2.85;;;5.10;99.90;;;;;;5000499;28;20241;-79
2023/11/25 00:05:36;;;;;;;3.60;2.08;;;5.10;99.90;;;;;;5000605;28;20702;-81
2023/11/25 00:08:03;;;;;;;3.17;2.50;;;5.10;99.90;;;;;;5000750;28;20234;-81
2023/11/25 00:10:30;;;;;;;2.20;1.83;;;5.10;99.90;;;;;;5001236;28;20222;-80
2023/11/25 00:12:57;;;;;;;4.28;2.00;;;5.10;99.90;;;;;;5008316;28;20210;-80
2023/11/25 00:15:25;;;;;;;4.93;2.70;;;5.10;99.90;;;;;;5022642;28;20286;-79
2023/11/25 00:17:53;;;;;;;2.78;2.38;;;5.10;99.90;;;;;;5022128;28;20354;-79
2023/11/25 00:20:20;;;;;;;2.70;1.70;;;5.10;99.90;;;;;;5020690;28;20257;-79
2023/11/25 00:22:47;;;;;;;1.90;1.70;;;5.10;99.90;;;;;;5001245;28;20226;-79
2023/11/25 00:25:15;;;;;;;4.43;2.25;;;5.10;99.90;;;;;;5000371;28;20222;-79
2023/11/25 00:27:43;;;;;;;3.35;2.53;;;5.10;99.90;;;;;;4992704;28;20284;-79
2023/11/25 00:30:12;;;;;;;2.85;1.80;;;5.10;99.90;;;;;;5000034;28;20230;-79
2023/11/25 00:32:41;;;;;;;1.98;1.60;;;5.10;99.90;;;;;;5000287;28;20320;-79
2023/11/25 00:35:09;;;;;;;2.45;1.83;;;5.10;99.90;;;;;;4998757;28;20242;-79
2023/11/25 00:37:36;;;;;;;2.78;2.00;;;5.10;99.90;;;;;;5000223;28;20223;-79
2023/11/25 00:40:04;;;;;;;3.17;2.35;;;5.10;99.90;;;;;;4999666;28;20226;-80
2023/11/25 00:42:32;;;;;;;4.53;1.77;;;5.00;99.90;;;;;;4998080;28;20227;-81
2023/11/25 00:44:59;;;;;;;2.38;1.90;;;5.00;99.90;;;;;;4999600;28;20229;-79
2023/11/25 00:47:27;;;;;;;2.30;1.70;;;5.00;99.90;;;;;;4999793;28;20235;-82
2023/11/25 00:49:58;;;;;;;4.80;1.85;;;5.00;99.90;;;;;;5000477;28;20611;-81
2023/11/25 00:52:28;;;;;;;9.82;3.90;;;5.00;99.90;;;;;;4973136;28;20227;-82
2023/11/25 00:54:56;;;;;;;3.05;2.15;;;5.00;99.90;;;;;;4999522;28;20273;-80
2023/11/25 00:57:24;;;;;;;3.38;1.95;;;5.00;99.90;;;;;;4999114;28;20236;-80
2023/11/25 00:59:55;;;;;;;3.63;1.92;;;5.00;99.90;;;;;;5000245;28;20218;-81
2023/11/25 01:02:22;;;;;;;2.53;1.90;;;5.00;99.90;;;;;;4997210;28;20673;-80
2023/11/25 01:04:49;;;;;;;5.45;3.22;;;5.00;99.90;;;;;;4996868;28;20218;-80
2023/11/25 01:07:20;;;;;;;3.10;1.75;;;5.00;99.90;;;;;;4996374;28;20227;-81
2023/11/25 01:09:47;;;;;;;3.92;1.60;;;4.90;99.90;;;;;;4997099;28;20222;-80
2023/11/25 01:12:16;;;;;;;4.68;1.60;;;4.90;99.90;;;;;;4985709;28;20241;-80
2023/11/25 01:14:44;;;;;;;2.13;1.50;;;4.90;99.90;;;;;;4995690;28;20292;-80
2023/11/25 01:17:11;;;;;;;3.55;1.40;;;4.90;99.90;;;;;;4996245;28;20235;-80
2023/11/25 01:19:38;;;;;;;3.50;1.73;;;4.90;99.90;;;;;;4996763;28;20250;-80
2023/11/25 01:22:06;;;;;;;2.05;1.38;;;4.90;99.90;;;;;;4995834;28;20245;-82
2023/11/25 01:24:34;;;;;;;2.88;1.60;;;5.00;99.90;;;;;;4995155;28;20233;-81
2023/11/25 01:27:02;;;;;;;3.05;1.55;;;5.00;99.90;;;;;;4994093;28;20227;-80
2023/11/25 01:29:29;;;;;;;2.80;1.55;;;5.00;99.90;;;;;;4995988;28;20241;-80
2023/11/25 01:31:56;;;;;;;2.63;1.70;;;5.00;99.90;;;;;;4996421;28;20226;-80
2023/11/25 01:34:23;;;;;;;1.83;1.63;;;5.00;99.90;;;;;;4996022;28;20223;-80
2023/11/25 01:36:50;;;;;;;3.83;1.42;;;4.90;99.90;;;;;;4996573;28;20237;-80
2023/11/25 01:39:17;;;;;;;2.72;1.40;;;5.00;99.90;;;;;;4983589;28;20223;-81
2023/11/25 01:41:45;;;;;;;2.55;1.35;;;4.90;99.90;;;;;;4976930;28;20231;-81
2023/11/25 01:44:13;;;;;;;3.00;2.03;;;4.90;99.90;;;;;;4976379;28;20242;-81
2023/11/25 01:46:42;;;;;;;1.75;1.65;;;4.90;99.90;;;;;;4976803;28;20286;-80
2023/11/25 01:49:12;;;;;;;4.85;2.03;;;4.90;99.90;;;;;;4976727;28;20311;-80
2023/11/25 01:51:42;;;;;;;2.70;1.20;;;4.90;99.90;;;;;;4976298;28;20229;-81
2023/11/25 01:54:11;;;;;;;2.55;1.50;;;4.90;99.90;;;;;;4982407;28;20222;-80
2023/11/25 01:56:39;;;;;;;1.27;1.17;;;5.00;99.90;;;;;;4995266;28;20230;-80
2023/11/25 01:59:11;;;;;;;2.08;1.52;;;4.90;99.90;;;;;;4985940;28;20341;-80
2023/11/25 02:01:38;;;;;;;1.38;1.27;;;4.90;99.90;;;;;;4995303;28;20238;-81
2023/11/25 02:04:05;;;;;;;1.77;1.10;;;4.90;99.90;;;;;;4996115;28;20253;-80
2023/11/25 02:06:32;;;;;;;4.85;1.90;;;4.90;99.90;;;;;;4994609;28;20227;-80
2023/11/25 02:09:00;;;;;;;3.15;1.65;;;5.00;99.90;;;;;;4995789;28;20317;-80
2023/11/25 02:11:30;;;;;;;2.38;1.00;;;5.00;99.90;;;;;;4995822;28;20218;-81
2023/11/25 02:13:58;;;;;;;2.25;1.30;;;5.00;99.90;;;;;;4994850;28;20309;-80
2023/11/25 02:16:27;;;;;;;3.10;1.92;;;5.00;99.90;;;;;;4994989;28;20235;-80
2023/11/25 02:18:53;;;;;;;2.08;1.50;;;5.00;99.90;;;;;;4995687;28;20242;-80
2023/11/25 02:21:21;;;;;;;3.00;1.10;;;5.00;99.90;;;;;;4995194;28;20285;-80
2023/11/25 02:23:49;;;;;;;2.47;1.50;;;5.00;99.90;;;;;;4995392;28;20301;-80
2023/11/25 02:26:17;;;;;;;2.63;1.77;;;5.00;99.90;;;;;;4993491;28;20223;-80
2023/11/25 02:28:44;;;;;;;2.42;1.40;;;5.00;99.90;;;;;;4994769;28;20292;-80
2023/11/25 02:31:11;;;;;;;2.30;1.60;;;5.10;99.90;;;;;;4994337;28;20234;-80
2023/11/25 02:33:39;;;;;;;3.90;1.38;;;5.00;99.90;;;;;;4994852;28;20654;-81
2023/11/25 02:36:08;;;;;;;4.07;1.55;;;5.00;99.90;;;;;;4995484;28;20231;-80
2023/11/25 02:38:35;;;;;;;3.67;1.75;;;5.00;99.90;;;;;;4994530;28;20231;-81
2023/11/25 02:41:04;;;;;;;3.22;1.10;;;5.00;99.90;;;;;;4995329;28;20230;-81
2023/11/25 02:43:31;;;;;;;1.80;1.30;;;5.00;99.90;;;;;;4994532;28;20321;-80
2023/11/25 02:45:58;;;;;;;1.95;1.55;;;5.00;99.90;;;;;;4996475;28;20697;-81
2023/11/25 02:48:25;;;;;;;1.83;1.30;;;5.00;99.90;;;;;;4998636;28;20506;-81
2023/11/25 02:50:52;;;;;;;1.80;1.20;;;5.00;99.90;;;;;;5004480;28;20537;-81
2023/11/25 02:53:19;;;;;;;1.83;1.33;;;5.00;99.90;;;;;;5006126;28;20234;-79
2023/11/25 02:55:46;;;;;;;2.30;1.35;;;5.00;99.90;;;;;;5004763;28;20282;-80
2023/11/25 02:58:17;;;;;;;3.75;2.17;;;5.00;99.90;;;;;;5006556;28;20227;-81
2023/11/25 03:00:44;;;;;;;5.72;1.40;;;5.00;99.90;;;;;;5009146;28;20314;-82
2023/11/25 03:03:16;;;;;;;5.90;1.75;;;5.00;99.90;;;;;;5010607;28;20240;-81
2023/11/25 03:05:45;;;;;;;1.52;1.33;;;5.00;99.90;;;;;;5008309;28;20230;-81
2023/11/25 03:08:13;;;;;;;1.23;1.13;;;4.90;99.90;;;;;;5009352;28;20227;-80
2023/11/25 03:10:42;;;;;;;4.93;1.35;;;4.90;99.90;;;;;;4998847;28;20302;-81
2023/11/25 03:13:10;;;;;;;4.65;1.33;;;4.90;99.90;;;;;;4995007;28;20235;-81
2023/11/25 03:15:39;;;;;;;2.08;1.60;;;4.90;99.90;;;;;;4994244;28;20233;-81
2023/11/25 03:18:07;;;;;;;12.68;2.08;;;4.90;99.90;;;;;;4994580;28;20688;-79
2023/11/25 03:20:34;;;;;;;2.00;1.33;;;4.90;99.90;;;;;;4993181;28;20255;-79
2023/11/25 03:23:03;;;;;;;1.50;1.13;;;4.90;99.90;;;;;;4991988;28;20238;-79
2023/11/25 03:25:30;;;;;;;1.67;1.45;;;4.90;99.90;;;;;;4993757;28;20227;-79
2023/11/25 03:27:58;;;;;;;4.25;2.35;;;4.90;99.90;;;;;;4984227;28;20310;-80
2023/11/25 03:30:27;;;;;;;4.65;1.60;;;4.90;99.90;;;;;;4994324;28;20219;-79
2023/11/25 03:32:55;;;;;;;3.85;1.55;;;4.90;99.90;;;;;;4994085;28;20251;-80
2023/11/25 03:35:22;;;;;;;2.92;1.45;;;4.90;99.90;;;;;;4994456;28;20693;-80
2023/11/25 03:37:49;;;;;;;4.13;1.80;;;4.90;99.90;;;;;;4993726;28;20243;-80
2023/11/25 03:40:17;;;;;;;1.88;1.25;;;5.00;99.90;;;;;;4994217;28;20238;-80
2023/11/25 03:42:44;;;;;;;2.90;1.35;;;5.00;99.90;;;;;;4993202;28;20240;-80
2023/11/25 03:45:13;;;;;;;4.03;1.70;;;5.00;99.90;;;;;;4994059;28;20701;-78
2023/11/25 03:47:41;;;;;;;2.92;2.20;;;5.00;99.90;;;;;;4993464;28;20254;-81
2023/11/25 03:50:11;;;;;;;5.22;1.27;;;5.00;99.90;;;;;;4994348;28;20275;-81
2023/11/25 03:52:38;;;;;;;2.78;1.20;;;5.00;99.90;;;;;;4993399;28;20340;-82
2023/11/25 03:55:06;;;;;;;7.28;2.17;;;4.90;99.90;;;;;;4994053;28;20223;-79
2023/11/25 03:57:33;;;;;;;6.18;1.85;;;4.90;99.90;;;;;;4993570;28;20230;-79
2023/11/25 04:00:00;;;;;;;3.90;1.27;;;4.90;99.90;;;;;;4994049;28;20568;-79
2023/11/25 04:02:27;;;;;;;1.58;1.40;;;4.90;99.90;;;;;;4993832;28;20238;-79
2023/11/25 04:05:00;;;;;;;4.30;1.90;;;4.90;99.90;;;;;;4993508;28;20229;-80
2023/11/25 04:07:30;;;;;;;1.85;1.00;;;4.90;99.90;;;;;;4993827;28;20265;-80
2023/11/25 04:10:06;;;;;;;5.05;1.77;;;4.90;99.90;;;;;;4993474;28;20314;-80
2023/11/25 04:12:33;;;;;;;4.03;1.50;;;4.90;99.90;;;;;;4993406;28;20238;-80
2023/11/25 04:15:00;;;;;;;3.50;2.25;;;4.90;99.90;;;;;;4993742;28;20250;-80
2023/11/25 04:17:27;;;;;;;2.33;1.40;;;4.90;99.90;;;;;;4993638;28;20763;-80
2023/11/25 04:19:57;;;;;;;2.25;2.05;;;4.90;99.90;;;;;;4993212;28;20704;-79
2023/11/25 04:22:24;;;;;;;3.60;1.48;;;4.90;99.90;;;;;;4993317;28;20226;-80
2023/11/25 04:24:53;;;;;;;3.35;1.85;;;4.90;99.90;;;;;;4993295;28;20390;-79
2023/11/25 04:27:26;;;;;;;3.03;1.50;;;4.80;99.90;;;;;;4993676;28;20549;-79
2023/11/25 04:29:53;;;;;;;2.15;1.58;;;4.90;99.90;;;;;;4993123;28;20230;-80
2023/11/25 04:32:20;;;;;;;4.35;1.92;;;4.90;99.90;;;;;;4993560;28;20618;-80
2023/11/25 04:34:48;;;;;;;1.73;1.55;;;4.90;99.90;;;;;;4993246;28;20226;-80
2023/11/25 04:37:15;;;;;;;3.97;1.85;;;5.00;99.90;;;;;;4994318;28;20226;-80
2023/11/25 04:39:42;;;;;;;4.30;3.40;;;5.00;99.90;;;;;;4996381;28;20238;-80
2023/11/25 04:42:10;;;;;;;6.38;2.50;;;5.00;99.90;;;;;;4997303;28;20541;-79
2023/11/25 04:44:37;;;;;;;1.98;1.88;;;5.00;99.90;;;;;;4996987;28;20235;-80
2023/11/25 04:47:05;;;;;;;4.43;2.13;;;5.00;99.90;;;;;;4997548;28;20246;-80
2023/11/25 04:49:32;;;;;;;3.20;1.90;;;5.00;99.90;;;;;;4997305;28;20313;-80
2023/11/25 04:51:59;;;;;;;2.63;1.60;;;5.00;99.90;;;;;;4996820;28;20222;-79
2023/11/25 04:54:26;;;;;;;4.97;2.20;;;5.00;99.90;;;;;;4997304;28;20680;-79
2023/11/25 04:56:54;;;;;;;3.20;1.83;;;5.00;99.90;;;;;;4996869;28;20563;-80
2023/11/25 04:59:22;;;;;;;4.30;2.20;;;5.10;99.90;;;;;;4996988;28;20231;-80
2023/11/25 05:01:49;;;;;;;4.20;1.70;;;5.10;99.90;;;;;;4996479;28;20551;-80
2023/11/25 05:04:16;;;;;;;3.25;2.13;;;5.10;99.90;;;;;;4997171;28;20234;-80
2023/11/25 05:06:44;;;;;;;5.55;1.83;;;5.10;99.90;;;;;;4995973;28;20227;-79
2023/11/25 05:09:13;;;;;;;2.22;2.03;;;5.10;99.90;;;;;;4996867;28;20227;-79
2023/11/25 05:11:40;;;;;;;7.47;2.08;;;5.10;99.90;;;;;;4996567;28;20306;-80
2023/11/25 05:14:07;;;;;;;2.95;1.92;;;5.10;99.90;;;;;;4996797;28;20231;-80
2023/11/25 05:16:35;;;;;;;3.75;2.17;;;5.10;99.90;;;;;;4993432;28;20677;-80
2023/11/25 05:19:03;;;;;;;5.90;2.10;;;5.20;99.90;;;;;;4976924;28;20215;-79
2023/11/25 05:21:30;;;;;;;5.07;1.92;;;5.20;99.90;;;;;;4986640;28;20687;-79
2023/11/25 05:23:57;;;;;;;6.40;2.10;;;5.20;99.90;;;;;;5015976;28;20233;-80
2023/11/25 05:26:25;;;;;;;4.00;2.63;;;5.10;99.90;;;;;;5016070;28;20222;-79
2023/11/25 05:28:52;;;;;;;4.32;2.13;;;5.20;99.90;;;;;;5015924;28;20236;-79
2023/11/25 05:31:19;;;;;;;5.53;2.00;;;5.20;99.90;;;;;;5015901;28;20233;-79
2023/11/25 05:33:47;;;;;;;7.45;2.10;;;5.20;99.90;;;;;;5014440;28;20237;-80
2023/11/25 05:36:14;;;;;;;5.18;1.90;;;5.20;99.90;;;;;;5015056;28;20230;-79
2023/11/25 05:38:41;;;;;;;2.65;1.42;;;5.20;99.90;;;;;;5015487;28;20241;-80
2023/11/25 05:41:11;;;;;;;2.15;1.35;;;5.20;99.90;;;;;;5015392;28;20237;-80
2023/11/25 05:43:39;;;;;;;6.28;1.90;;;5.10;99.90;;;;;;5015834;28;20622;-79
2023/11/25 05:46:06;;;;;;;3.97;2.13;;;5.10;99.90;;;;;;5015909;28;20245;-80
2023/11/25 05:48:36;;;;;;;4.30;1.88;;;5.10;99.90;;;;;;5015599;28;20234;-80
2023/11/25 05:51:05;;;;;;;3.00;1.80;;;5.00;99.90;;;;;;5014635;28;20683;-80
2023/11/25 05:53:32;;;;;;;4.55;2.20;;;5.00;99.90;;;;;;5015713;28;20241;-80
2023/11/25 05:55:59;;;;;;;3.78;2.20;;;5.00;99.90;;;;;;5014515;28;20232;-80
2023/11/25 05:58:26;;;;;;;4.82;1.67;;;5.00;99.90;;;;;;5015626;28;20226;-80
2023/11/25 06:00:54;;;;;;;4.15;1.90;;;5.00;99.90;;;;;;5014578;28;20233;-79
2023/11/25 06:03:23;;;;;;;3.92;2.55;;;5.00;99.90;;;;;;5014911;28;20551;-79
2023/11/25 06:05:50;;;;;;;4.00;2.70;;;5.00;99.90;;;;;;5014925;28;20241;-80
2023/11/25 06:08:18;;;;;;;4.45;1.58;;;5.00;99.90;;;;;;5015507;28;20237;-80
2023/11/25 06:10:46;;;;;;;2.35;1.48;;;5.00;99.90;;;;;;5015997;28;20318;-80
2023/11/25 06:13:13;;;;;;;5.45;2.15;;;4.90;99.90;;;;;;5016553;28;20226;-80
2023/11/25 06:15:39;;;;;;;2.95;1.52;;;5.00;99.90;;;;;;5015199;28;20230;-79
2023/11/25 06:18:07;;;;;;;2.45;1.60;;;4.90;99.90;;;;;;5015099;28;20223;-80
2023/11/25 06:20:35;;;;;;;5.15;1.90;;;4.80;99.90;;;;;;5015483;28;20672;-79
2023/11/25 06:23:02;;;;;;;6.05;1.85;;;4.70;99.90;;;;;;5014299;28;20313;-79
2023/11/25 06:25:30;;;;;;;4.15;1.63;;;4.80;99.90;;;;;;5015027;28;20222;-79
2023/11/25 06:27:57;;;;;;;4.22;1.63;;;4.70;99.90;;;;;;5014776;28;20237;-80
2023/11/25 06:30:24;;;;;;;3.45;2.38;;;4.70;99.90;;;;;;5015132;28;20229;-80
2023/11/25 06:32:51;;;;;;;2.72;1.50;;;4.60;99.90;;;;;;5014417;28;20234;-80
2023/11/25 06:35:18;;;;;;;3.65;2.70;;;4.60;99.90;;;;;;5014879;28;20221;-80
2023/11/25 06:37:45;;;;;;;5.47;2.35;;;4.60;99.90;;;;;;5014976;28;20222;-80
2023/11/25 06:40:15;;;;;;;8.98;2.63;;;4.60;99.90;;;;;;5014822;28;20698;-79
2023/11/25 06:42:43;;;;;;;3.17;1.90;;;4.60;99.90;;;;;;5014244;28;20230;-80
2023/11/25 06:45:11;;;;;;;13.13;3.78;;;4.60;99.90;;;;;;5014058;28;20702;-79
2023/11/25 06:47:39;;;;;;;2.67;2.05;;;4.60;99.90;;;;;;5015071;28;20673;-79
2023/11/25 06:50:07;;;;;;;5.82;2.00;;;4.60;99.90;;;;;;5014708;28;20226;-80
2023/11/25 06:52:34;;;;;;;2.60;1.95;;;4.60;99.90;;;;;;5014482;28;20226;-79
2023/11/25 06:55:02;;;;;;;3.20;1.75;;;4.60;99.90;;;;;;5014041;28;20245;-80
2023/11/25 06:57:29;;;;;;;9.55;2.20;;;4.60;99.90;;;;;;5014303;28;20241;-80
2023/11/25 06:59:57;;;;;;;3.83;2.20;;;4.60;99.90;;;;;;5013414;28;20702;-80
2023/11/25 07:02:26;;;;;;;1.92;1.70;;;4.70;99.90;;;;;;5013516;28;20237;-80
2023/11/25 07:04:53;;;;;;;5.75;1.80;;;4.70;99.90;;;;;;5013960;28;20226;-80
2023/11/25 07:07:20;;;;;;;3.53;1.90;;;4.70;99.90;;;;;;5013839;28;20233;-79
2023/11/25 07:09:48;;;;;;;2.60;1.83;;;4.80;99.90;;;;;;5014441;28;20225;-80
2023/11/25 07:12:17;;;;;;;7.70;2.30;;;4.80;99.90;;;;;;5013876;28;20234;-80
2023/11/25 07:14:44;;;;;;;7.00;2.60;;;4.70;99.90;;;;;;5014521;28;20214;-80
2023/11/25 07:17:13;;;;;;;7.15;2.10;;;4.80;99.90;;;;;;5013656;28;20233;-80
2023/11/25 07:19:41;;;;;;;4.70;2.17;;;4.70;99.90;;;;;;5014382;28;20218;-80
2023/11/25 07:22:08;;;;;;;3.47;1.90;;;4.80;99.90;;;;;;5013820;28;20244;-80
2023/11/25 07:24:35;;;;;;;2.67;1.55;;;4.80;99.90;;;;;;5014174;28;20609;-80
2023/11/25 07:27:05;;;;;;;4.47;1.60;;;4.80;99.90;;;;;;5013235;28;20537;-79
2023/11/25 07:29:37;;;;;;;3.70;1.80;;;4.80;99.90;;;;;;5013580;28;20261;-80
2023/11/25 07:32:05;;;;;;;6.68;2.58;;;4.80;99.90;;;;;;5013425;28;20240;-79
2023/11/25 07:34:35;;;;;;;3.60;2.10;;;4.90;99.90;;;;;;5014166;28;20225;-80
2023/11/25 07:37:15;;;;;;;5.05;2.42;;;4.80;99.90;;;;;;5004474;28;20255;-79
2023/11/25 07:39:42;;;;;;;3.20;1.77;;;4.80;99.90;;;;;;5012615;28;20320;-80
2023/11/25 07:42:09;;;;;;;2.40;2.20;;;4.90;99.90;;;;;;5012986;28;20312;-80
2023/11/25 07:44:36;;;;;;;5.00;2.00;;;4.90;99.90;;;;;;5002977;28;20232;-80
2023/11/25 07:47:15;;;;;;;2.35;1.63;;;4.90;99.90;;;;;;5012898;28;20234;-80
2023/11/25 07:49:44;;;;;;;2.83;2.20;;;4.90;99.90;;;;;;5003502;28;20232;-81
2023/11/25 07:52:11;;;;;;;5.53;3.03;;;4.90;99.90;;;;;;5012584;28;20222;-80
2023/11/25 07:54:38;;;;;;;10.25;3.45;;;4.90;99.90;;;;;;5013904;28;20202;-80
2023/11/25 07:57:06;;;;;;;4.72;2.22;;;4.90;99.90;;;;;;5013168;28;20411;-80
2023/11/25 07:59:33;;;;;;;7.32;3.13;;;4.90;99.90;;;;;;5013568;28;20565;-80
2023/11/25 08:02:00;;;;;;;6.32;3.03;;;4.90;99.90;;;;;;5004840;28;20357;-80
2023/11/25 08:04:27;;;;;;;5.20;3.20;;;4.90;99.90;;;;;;5013470;28;20664;-80
2023/11/25 08:06:56;;;;;;;3.70;3.08;;;4.90;99.90;;;;;;5013032;28;20214;-80
2023/11/25 08:09:23;;;;;;;5.10;2.50;;;4.90;99.90;;;;;;5013552;28;20310;-80
2023/11/25 08:11:50;;;;;;;3.65;2.40;;;4.90;99.90;;;;;;5014955;28;20252;-80
2023/11/25 08:14:18;;;;;;;5.70;2.65;;;4.80;99.90;;;;;;5017280;28;20251;-80
2023/11/25 08:16:47;;;;;;;4.72;2.35;;;4.80;99.90;;;;;;5017632;28;20304;-80
2023/11/25 08:19:21;;;;;;;2.95;2.05;;;4.90;99.90;;;;;;5016998;28;20552;-80
2023/11/25 08:21:48;;;;;;;3.45;2.42;;;4.90;99.90;;;;;;5017302;28;20241;-81
2023/11/25 08:24:17;;;;;;;3.97;2.80;;;4.90;99.90;;;;;;5016637;28;20241;-81
2023/11/25 08:26:45;;;;;;;5.05;3.38;;;4.90;99.90;;;;;;5017056;28;20264;-81
2023/11/25 08:29:12;;;;;;;4.88;2.88;;;4.90;99.90;;;;;;5016970;28;20226;-81
2023/11/25 08:31:40;;;;;;;3.63;2.85;;;4.90;99.90;;;;;;5017611;28;20761;-81
2023/11/25 08:34:09;;;;;;;4.50;2.30;;;4.90;99.90;;;;;;5014957;28;20301;-81
2023/11/25 08:36:44;;;;;;;4.10;2.70;;;5.00;99.90;;;;;;5016742;28;20222;-81
2023/11/25 08:39:13;;;;;;;3.75;2.53;;;5.10;99.90;;;;;;5016207;28;20221;-82
2023/11/25 08:41:43;;;;;;;7.38;3.47;;;5.10;99.90;;;;;;5016969;28;20237;-81
2023/11/25 08:44:12;;;;;;;3.83;2.30;;;5.10;99.90;;;;;;5003042;28;20226;-81
2023/11/25 08:46:40;;;;;;;4.28;2.38;;;5.10;99.90;;;;;;4997241;28;20223;-81
2023/11/25 08:49:07;;;;;;;5.32;3.35;;;5.10;99.90;;;;;;4996970;28;20226;-81
2023/11/25 08:54:09;;;;;;;3.63;2.58;;;5.20;99.90;;;;;;5170109;23;20231;-80
2023/11/25 08:56:40;;;;;;;3.75;2.95;;;5.20;99.90;;;;;;4957697;29;20235;-81
2023/11/25 08:59:18;;;;;;;4.05;2.65;;;5.20;99.90;;;;;;4957901;29;20232;-80
2023/11/25 09:01:46;;;;;;;3.97;2.42;;;5.30;99.90;;;;;;4957671;28;20238;-80
2023/11/25 09:04:19;;;;;;;4.03;2.50;;;5.40;99.90;;;;;;4958018;29;20243;-79
2023/11/25 09:06:47;;;;;;;3.58;2.17;;;5.40;99.90;;;;;;4957724;29;20232;-79
2023/11/25 09:09:16;;;;;;;5.38;2.30;;;5.50;99.90;;;;;;4958232;29;20627;-80
2023/11/25 09:11:44;;;;;;;5.35;3.03;;;5.60;99.90;;;;;;4957650;28;20224;-80
2023/11/25 09:14:14;;;;;;;3.97;2.50;;;5.70;99.90;;;;;;4958093;29;20628;-80
2023/11/25 09:16:42;;;;;;;6.05;1.83;;;5.70;99.90;;;;;;4957986;29;20303;-80
2023/11/25 09:19:23;;;;;;;4.65;1.95;;;5.70;99.90;;;;;;4957240;29;20224;-80
2023/11/25 09:21:51;;;;;;;2.67;2.17;;;5.80;99.90;;;;;;4957288;28;20689;-81
2023/11/25 09:24:18;;;;;;;3.65;1.95;;;5.80;99.90;;;;;;4956767;28;20247;-80
2023/11/25 09:26:46;;;;;;;5.22;2.58;;;5.90;99.90;;;;;;4957592;29;20224;-81
2023/11/25 09:29:14;;;;;;;5.75;2.60;;;5.90;99.90;;;;;;4957506;29;20251;-80
2023/11/25 09:31:41;;;;;;;6.00;2.78;;;5.90;99.90;;;;;;4957741;28;20228;-80
2023/11/25 09:34:08;;;;;;;7.80;2.70;;;5.90;99.90;;;;;;4957135;29;20250;-81
2023/11/25 09:36:37;;;;;;;4.82;2.47;;;5.90;99.90;;;;;;4957770;29;20479;-80
2023/11/25 09:39:09;;;;;;;5.75;2.97;;;6.00;99.90;;;;;;4957431;29;20228;-81
2023/11/25 09:41:37;;;;;;;2.97;2.20;;;6.00;99.90;;;;;;4957605;28;20239;-80
2023/11/25 09:44:07;;;;;;;4.57;2.13;;;6.00;99.90;;;;;;4957002;29;20290;-80
2023/11/25 09:46:36;;;;;;;4.53;2.50;;;6.10;99.90;;;;;;4957585;29;20224;-81
2023/11/25 09:49:03;;;;;;;6.82;2.10;;;6.10;99.90;;;;;;4957189;29;20270;-80
2023/11/25 09:51:33;;;;;;;8.20;3.40;;;6.10;99.90;;;;;;4957243;28;20224;-80
2023/11/25 09:54:07;;;;;;;3.88;2.72;;;6.10;99.90;;;;;;4956348;28;20227;-80
2023/11/25 09:56:36;;;;;;;3.92;2.40;;;6.10;99.90;;;;;;4957335;29;20283;-80
2023/11/25 09:59:07;;;;;;;6.45;2.95;;;6.10;99.90;;;;;;4957176;29;20616;-80
2023/11/25 10:01:38;;;;;;;6.13;3.28;;;6.10;99.90;;;;;;4956490;28;20259;-81
2023/11/25 10:04:10;;;;;;;4.22;1.75;;;6.10;99.90;;;;;;4956422;29;20232;-81
2023/11/25 10:06:38;;;;;;;2.92;1.98;;;6.20;99.90;;;;;;4956512;29;20319;-81
2023/11/25 10:09:08;;;;;;;3.70;2.50;;;6.20;99.90;;;;;;4956705;29;20228;-80
2023/11/25 10:11:42;;;;;;;6.75;3.20;;;6.20;99.90;;;;;;4944786;29;20927;-80
2023/11/25 10:14:13;;;;;;;4.80;2.42;;;6.30;99.90;;;;;;4955369;29;20282;-81
2023/11/25 10:16:46;;;;;;;3.65;1.73;;;6.30;99.90;;;;;;4957799;29;20227;-81
2023/11/25 10:19:22;;;;;;;5.28;2.35;;;6.30;99.90;;;;;;4956506;29;20240;-81
2023/11/25 10:21:56;;;;;;;3.10;2.65;;;6.40;99.90;;;;;;4957026;28;20227;-81
2023/11/25 10:24:24;;;;;;;3.90;2.65;;;6.40;99.90;;;;;;4944792;29;20238;-81
2023/11/25 10:26:52;;;;;;;3.00;2.20;;;6.40;99.90;;;;;;4956933;29;20279;-81
2023/11/25 10:29:24;;;;;;;4.50;2.22;;;6.40;99.90;;;;;;4955745;29;20689;-79
2023/11/25 10:31:57;;;;;;;3.40;2.10;;;6.50;99.90;;;;;;4956249;28;20622;-81
2023/11/25 10:34:24;;;;;;;3.08;2.10;;;6.50;99.90;;;;;;4955471;28;20313;-81
2023/11/25 10:36:54;;;;;;;10.88;2.53;;;6.50;99.90;;;;;;4956268;29;20227;-81
2023/11/25 10:39:24;;;;;;;4.25;2.17;;;6.50;99.90;;;;;;4945562;29;20581;-81
2023/11/25 10:41:54;;;;;;;3.88;2.33;;;6.60;99.90;;;;;;4951918;28;20265;-81
2023/11/25 10:44:21;;;;;;;9.45;3.08;;;6.60;99.90;;;;;;4956166;29;20236;-81
2023/11/25 10:46:48;;;;;;;3.38;2.50;;;6.60;99.90;;;;;;4956176;29;20235;-80
2023/11/25 10:49:24;;;;;;;4.75;3.08;;;6.60;99.90;;;;;;4955578;29;20228;-81
2023/11/25 10:51:53;;;;;;;3.92;2.78;;;6.60;99.90;;;;;;4955519;28;20230;-81
2023/11/25 10:54:26;;;;;;;4.35;2.85;;;6.70;99.90;;;;;;4956435;28;20303;-81
2023/11/25 10:57:03;;;;;;;11.70;3.55;;;6.70;99.90;;;;;;4945695;29;20651;-81
2023/11/25 10:59:34;;;;;;;4.68;2.50;;;6.70;99.90;;;;;;4955065;29;20224;-80
2023/11/25 11:02:07;;;;;;;4.32;2.53;;;6.70;99.90;;;;;;4955913;28;20228;-79
2023/11/25 11:04:45;;;;;;;9.10;3.58;;;6.70;99.90;;;;;;4955806;29;20645;-80
2023/11/25 11:07:30;;;;;;;6.55;3.47;;;6.70;99.90;;;;;;4945836;29;20223;-79
2023/11/25 11:10:07;;;;;;;5.57;3.55;;;6.70;99.90;;;;;;4955472;29;20283;-81
2023/11/25 11:12:39;;;;;;;6.10;4.13;;;6.70;99.90;;;;;;4945179;29;20242;-80
2023/11/25 11:15:12;;;;;;;8.82;5.78;;;6.80;99.90;;;;;;4955677;29;20232;-80
2023/11/25 11:17:47;;;;;;;4.80;3.05;;;6.80;99.90;;;;;;4955063;29;20742;-80
2023/11/25 11:20:18;;;;;;;7.45;3.65;;;6.80;99.90;;;;;;4955819;29;20238;-79
2023/11/25 11:22:45;;;;;;;5.35;3.03;;;6.80;99.90;;;;;;4955122;28;20259;-79
2023/11/25 11:25:18;;;;;;;5.70;3.30;;;6.80;99.90;;;;;;4953540;29;20232;-80
2023/11/25 11:27:55;;;;;;;5.00;3.13;;;6.80;99.90;;;;;;4955928;29;20228;-80
2023/11/25 11:30:32;;;;;;;3.47;2.40;;;6.80;99.90;;;;;;4955084;29;20251;-79
2023/11/25 11:33:00;;;;;;;6.30;2.80;;;6.90;99.90;;;;;;4955078;28;20224;-80
2023/11/25 11:35:38;;;;;;;8.52;5.05;;;6.90;99.90;;;;;;4955447;29;20330;-80
2023/11/25 11:38:26;;;;;;;6.97;3.95;;;6.90;99.90;;;;;;4955438;29;20236;-80
2023/11/25 11:40:54;;;;;;;8.30;3.42;;;6.90;99.90;;;;;;4956039;29;20678;-80
2023/11/25 11:43:21;;;;;;;4.35;2.97;;;6.90;99.90;;;;;;4955742;28;20228;-80
2023/11/25 11:45:50;;;;;;;8.15;3.63;;;6.80;99.90;;;;;;4954901;28;20271;-80
2023/11/25 11:48:17;;;;;;;7.20;3.55;;;6.80;99.90;;;;;;4955301;29;20566;-80
2023/11/25 11:50:54;;;;;;;4.70;3.17;;;6.80;99.90;;;;;;4956278;29;20231;-80
2023/11/25 11:53:27;;;;;;;4.50;2.60;;;6.80;99.90;;;;;;4955338;28;20287;-79
2023/11/25 11:55:54;;;;;;;3.13;2.38;;;6.80;99.90;;;;;;4956903;29;20310;-80
2023/11/25 11:58:26;;;;;;;3.22;2.72;;;6.80;99.90;;;;;;4956360;29;20689;-80
2023/11/25 12:01:08;;;;;;;3.58;2.53;;;6.80;99.90;;;;;;4946097;29;20227;-80
2023/11/25 12:03:46;;;;;;;3.50;2.63;;;6.80;99.90;;;;;;4955618;29;20231;-80
2023/11/25 12:06:19;;;;;;;3.15;2.67;;;6.80;99.90;;;;;;4954624;29;20322;-80
2023/11/25 12:08:46;;;;;;;2.55;2.15;;;6.80;99.90;;;;;;4956704;29;20227;-80
2023/11/25 12:11:14;;;;;;;3.42;2.17;;;6.80;99.90;;;;;;4956873;29;20227;-79
2023/11/25 12:13:43;;;;;;;2.50;2.03;;;6.80;99.90;;;;;;4955223;28;20232;-80
2023/11/25 12:16:10;;;;;;;2.75;2.55;;;6.80;99.90;;;;;;4954773;29;20239;-80
2023/11/25 12:18:38;;;;;;;2.70;2.00;;;6.80;99.90;;;;;;4956091;29;20227;-80
2023/11/25 12:21:05;;;;;;;3.05;2.20;;;6.70;99.90;;;;;;4954424;29;20639;-80
2023/11/25 12:23:34;;;;;;;2.05;1.92;;;6.70;99.90;;;;;;4954682;28;20228;-81
2023/11/25 12:26:03;;;;;;;2.50;2.30;;;6.70;99.90;;;;;;4955150;29;20224;-81
2023/11/25 12:28:31;;;;;;;2.97;2.70;;;6.60;99.90;;;;;;4955093;29;20231;-80
2023/11/25 12:30:58;;;;;;;2.63;2.42;;;6.60;99.90;;;;;;4956770;29;20224;-80
2023/11/25 12:33:25;;;;;;;3.25;2.95;;;6.60;99.90;;;;;;4956907;28;20303;-80
2023/11/25 12:35:58;;;;;;;3.58;3.38;;;6.50;99.90;;;;;;4956122;29;20235;-80
2023/11/25 12:38:33;;;;;;;2.88;2.67;;;6.60;99.90;;;;;;4957283;29;20234;-80
2023/11/25 12:41:03;;;;;;;3.80;3.30;;;6.50;99.90;;;;;;4955640;29;20223;-80
2023/11/25 12:43:36;;;;;;;3.60;3.25;;;6.50;99.90;;;;;;4957058;28;20236;-80
2023/11/25 12:46:10;;;;;;;2.78;2.53;;;6.50;99.90;;;;;;4944965;29;20565;-80
2023/11/25 12:48:37;;;;;;;3.10;2.90;;;6.50;99.90;;;;;;4955535;29;20310;-80
2023/11/25 12:51:07;;;;;;;3.35;3.05;;;6.50;99.90;;;;;;4955114;29;20232;-80
2023/11/25 12:53:35;;;;;;;3.50;3.30;;;6.40;99.90;;;;;;4955003;28;20232;-80
2023/11/25 12:56:09;;;;;;;2.85;2.65;;;6.40;99.90;;;;;;4954246;29;20236;-80
2023/11/25 12:58:46;;;;;;;2.75;2.50;;;6.40;99.90;;;;;;4957006;28;20228;-81
2023/11/25 13:01:13;;;;;;;2.95;2.70;;;6.40;99.90;;;;;;4957918;29;20689;-80
2023/11/25 13:03:42;;;;;;;2.58;2.38;;;6.40;99.90;;;;;;4959253;28;20235;-80
2023/11/25 13:06:10;;;;;;;2.30;2.10;;;6.40;99.90;;;;;;4958228;29;20323;-80
2023/11/25 13:08:40;;;;;;;2.67;2.47;;;6.30;99.90;;;;;;4958564;29;20234;-80